Time;durP1;ratioP1;P1;durP2;ratioP2;P2;SDS_P1;SDS_P2;PMS_P1;PMS_P2;Temp;Humidity;BMP_temperature;BMP_pressure;BME280_temperature;BME280_humidity;BME280_pressure;Samples;Min_cycle;Max_cycle;Signal;HPM_P1;HPM_P2
2022/06/07 00:01:58;;;;;;;45.10;26.67;;;;;;;-145.18;100.00;46660.41;5032615;28;20030;-82
2022/06/07 00:04:24;;;;;;;40.60;25.40;;;;;;;-145.18;100.00;46660.41;5044023;28;20462;-82
2022/06/07 00:06:49;;;;;;;43.30;27.13;;;;;;;-145.18;100.00;46660.41;5034887;28;20033;-81
2022/06/07 00:09:14;;;;;;;43.40;26.33;;;;;;;-145.18;100.00;46660.41;5052646;28;20037;-82
2022/06/07 00:11:40;;;;;;;44.10;26.50;;;;;;;-145.18;100.00;46660.41;5052535;28;20045;-82
2022/06/07 00:14:05;;;;;;;43.83;27.43;;;;;;;-145.18;100.00;46660.41;5052368;28;20072;-81
2022/06/07 00:16:30;;;;;;;49.10;28.43;;;;;;;-145.18;100.00;46660.41;5051047;28;20037;-82
2022/06/07 00:18:56;;;;;;;51.37;28.33;;;;;;;-145.18;100.00;46660.41;5052419;28;20064;-81
2022/06/07 00:21:21;;;;;;;46.07;29.77;;;;;;;-145.18;100.00;46660.41;5034526;28;20500;-81
2022/06/07 00:23:46;;;;;;;51.90;29.67;;;;;;;-145.18;100.00;46660.41;5052613;28;20117;-81
2022/06/07 00:26:12;;;;;;;44.17;27.87;;;;;;;-145.18;100.00;46660.41;5051745;28;20037;-82
2022/06/07 00:28:38;;;;;;;53.60;28.93;;;;;;;-145.18;100.00;46660.41;5034788;28;20038;-81
2022/06/07 00:31:03;;;;;;;48.23;28.37;;;;;;;-145.18;100.00;46660.41;5050161;28;20072;-81
2022/06/07 00:33:29;;;;;;;54.27;29.80;;;;;;;-145.18;100.00;46660.41;5050929;28;20503;-82
2022/06/07 00:35:54;;;;;;;46.20;27.73;;;;;;;-145.18;100.00;46660.41;5051087;28;20021;-82
2022/06/07 00:38:19;;;;;;;54.33;26.90;;;;;;;-145.18;100.00;46660.41;5052473;28;20122;-82
2022/06/07 00:40:45;;;;;;;49.27;25.90;;;;;;;-145.18;100.00;46660.41;5052510;28;20028;-81
2022/06/07 00:43:10;;;;;;;41.97;24.87;;;;;;;-145.18;100.00;46660.41;5051870;28;20029;-81
2022/06/07 00:45:37;;;;;;;44.70;25.77;;;;;;;-145.18;100.00;46660.41;5052415;28;20701;-82
2022/06/07 00:48:04;;;;;;;46.17;25.30;;;;;;;-145.18;100.00;46660.41;5051856;28;20040;-82
2022/06/07 00:50:38;;;;;;;45.13;23.87;;;;;;;-145.18;100.00;46660.41;5052187;28;20055;-82
2022/06/07 00:53:04;;;;;;;46.63;25.27;;;;;;;-145.18;100.00;46660.41;5051867;28;20029;-82
2022/06/07 00:55:30;;;;;;;42.40;23.80;;;;;;;-145.18;100.00;46660.41;5051701;28;20033;-82
2022/06/07 00:57:56;;;;;;;50.07;23.43;;;;;;;-145.18;100.00;46660.41;5051371;28;20037;-82
2022/06/07 01:00:24;;;;;;;42.70;24.07;;;;;;;-145.18;100.00;46660.41;5052221;28;20036;-82
2022/06/07 01:02:51;;;;;;;36.80;20.80;;;;;;;-145.18;100.00;46660.41;5051547;28;20036;-82
2022/06/07 01:05:16;;;;;;;41.13;20.27;;;;;;;-145.18;100.00;46660.41;5051876;28;20048;-83
2022/06/07 01:10:44;;;;;;;40.93;20.93;;;;;;;-145.18;100.00;46660.41;5052128;28;20075;-84
2022/06/07 01:13:15;;;;;;;42.07;21.57;;;;;;;-145.18;100.00;46660.41;5051275;28;20091;-84
2022/06/07 01:15:43;;;;;;;37.80;21.80;;;;;;;-145.18;100.00;46660.41;5052002;28;20485;-86
2022/06/07 01:18:09;;;;;;;41.67;22.53;;;;;;;-145.18;100.00;46660.41;5051179;28;20489;-85
2022/06/07 01:20:34;;;;;;;45.17;23.10;;;;;;;-145.18;100.00;46660.41;5051627;28;20120;-85
2022/06/07 01:23:00;;;;;;;41.07;24.63;;;;;;;-145.18;100.00;46660.41;5049789;28;20061;-84
2022/06/07 01:25:25;;;;;;;53.53;26.67;;;;;;;-145.18;100.00;46660.41;5051626;28;20036;-84
2022/06/07 01:27:50;;;;;;;49.17;26.70;;;;;;;-145.18;100.00;46660.41;5051126;28;20076;-86
2022/06/07 01:30:16;;;;;;;50.93;28.27;;;;;;;-145.18;100.00;46660.41;5051069;28;20071;-85
2022/06/07 01:32:41;;;;;;;46.90;25.70;;;;;;;-145.18;100.00;46660.41;5051120;28;20033;-84
2022/06/07 01:35:08;;;;;;;45.50;25.10;;;;;;;-145.18;100.00;46660.41;5051289;28;20478;-83
2022/06/07 01:37:34;;;;;;;40.37;24.80;;;;;;;-145.18;100.00;46660.41;5050986;28;20025;-84
2022/06/07 01:42:43;;;;;;;40.07;23.47;;;;;;;-145.18;100.00;46660.41;5035982;28;20555;-86
2022/06/07 01:45:09;;;;;;;37.30;22.90;;;;;;;-145.18;100.00;46660.41;5051201;28;20045;-86
2022/06/07 01:47:34;;;;;;;34.70;21.80;;;;;;;-145.18;100.00;46660.41;5050966;28;20033;-89
2022/06/07 01:50:01;;;;;;;32.53;21.10;;;;;;;-145.18;100.00;46660.41;5051786;28;20044;-90
2022/06/07 01:53:14;;;;;;;34.43;19.43;;;;;;;-145.18;100.00;46660.41;5052210;28;20028;-89
2022/06/07 01:55:39;;;;;;;34.10;20.70;;;;;;;-145.18;100.00;46660.41;5051362;28;20025;-89
2022/06/07 01:58:05;;;;;;;29.20;19.43;;;;;;;-145.18;100.00;46660.41;5051529;28;20060;-88
2022/06/07 02:04:10;;;;;;;34.03;20.83;;;;;;;-145.18;100.00;46660.41;5094866;23;20117;-87
2022/06/07 02:08:05;;;;;;;30.80;20.07;;;;;;;-145.18;100.00;46660.41;4998385;28;20084;-85
2022/06/07 02:11:51;;;;;;;32.77;20.00;;;;;;;-145.18;100.00;46660.41;4991511;28;20026;-84
2022/06/07 02:15:44;;;;;;;31.57;20.47;;;;;;;-145.18;100.00;46660.41;4991937;28;20026;-84
2022/06/07 02:23:15;;;;;;;27.47;17.90;;;;;;;-145.18;100.00;46660.41;4971131;28;20097;-84
2022/06/07 02:30:42;;;;;;;30.10;19.40;;;;;;;-145.18;100.00;46660.41;4952187;28;20038;-85
2022/06/07 02:34:09;;;;;;;;;;;;;;;-145.18;100.00;46660.41;4965717;28;20026;-85
2022/06/07 02:38:07;;;;;;;34.80;20.23;;;;;;;-145.18;100.00;46676.03;4971513;28;19910;-89
2022/06/07 02:42:03;;;;;;;26.13;17.80;;;;;;;-145.18;100.00;46636.94;4971871;28;20159;-83
2022/06/07 02:45:54;;;;;;;29.73;18.57;;;;;;;-145.18;100.00;46660.41;4971816;28;20023;-82
2022/06/07 02:53:13;;;;;;;31.10;19.07;;;;;;;-145.18;100.00;46660.41;4970666;28;20534;-83
2022/06/07 03:00:38;;;;;;;26.60;18.53;;;;;;;-145.18;100.00;46660.41;4970930;28;20034;-84
2022/06/07 09:19:24;;;;;;;32.83;24.20;;;;;;;-145.18;100.00;46679.94;4949587;28;20130;-85
2022/06/07 09:23:08;;;;;;;31.63;25.20;;;;;;;-145.18;100.00;46674.06;4934352;29;20617;-88
2022/06/07 09:26:54;;;;;;;35.23;24.47;;;;;;;-145.18;100.00;46681.88;4937498;29;20039;-88
2022/06/07 09:30:43;;;;;;;33.43;24.37;;;;;;;-145.18;100.00;46683.84;4953277;29;20113;-87
2022/06/07 09:34:54;;;;;;;36.33;26.50;;;;;;;-145.18;100.00;46677.97;4953092;29;20119;-88
2022/06/07 09:38:40;;;;;;;41.03;29.20;;;;;;;-145.18;100.00;46679.94;4953671;29;20047;-88
2022/06/07 09:46:04;;;;;;;36.87;27.83;;;;;;;-145.18;100.00;46679.94;4952091;28;20557;-88
2022/06/07 09:49:49;;;;;;;38.80;29.47;;;;;;;-145.18;100.00;46674.06;4953117;29;20074;-87
2022/06/07 09:53:35;;;;;;;41.23;27.23;;;;;;;-145.18;100.00;46674.06;4953204;29;20043;-88
2022/06/07 10:00:55;;;;;;;36.70;25.27;;;;;;;-145.18;100.00;46679.94;4952581;29;20482;-89
2022/06/07 10:04:42;;;;;;;32.67;21.47;;;;;;;-145.18;100.00;46681.88;4952774;29;20055;-88
2022/06/07 10:08:30;;;;;;;29.57;18.93;;;;;;;-145.18;100.00;46687.75;4952219;29;20066;-88
2022/06/07 10:15:50;;;;;;;25.37;16.97;;;;;;;-145.18;100.00;46683.84;4951980;28;20054;-88
2022/06/07 21:40:07;;;;;;;12.23;7.60;;;;;;;-145.18;100.00;46660.41;4969018;28;20127;-69
2022/06/07 21:43:53;;;;;;;15.23;7.53;;;;;;;-145.18;100.00;46660.41;4952145;29;20087;-69
2022/06/07 21:47:40;;;;;;;14.43;8.00;;;;;;;-145.18;100.00;46660.41;4952832;29;20097;-70
2022/06/07 21:51:25;;;;;;;13.87;8.27;;;;;;;-145.18;100.00;46656.50;4953213;29;20122;-69
2022/06/07 21:55:15;;;;;;;12.57;8.33;;;;;;;-145.18;100.00;46662.34;4952222;29;20130;-69
2022/06/07 22:06:09;;;;;;;16.27;8.87;;;;;;;-145.18;100.00;46658.44;4952262;29;20045;-70
2022/06/07 22:13:32;;;;;;;13.03;8.50;;;;;;;-145.18;100.00;46658.44;4951669;29;20194;-69
2022/06/07 22:17:18;;;;;;;14.65;8.18;;;;;;;-145.18;100.00;46658.44;4952250;29;20043;-69
2022/06/07 22:21:04;;;;;;;11.20;8.17;;;;;;;-145.18;100.00;46654.53;4951482;29;20058;-70
2022/06/07 22:24:50;;;;;;;16.57;9.97;;;;;;;-145.18;100.00;46662.34;4952463;28;20043;-70
2022/06/07 22:32:27;;;;;;;27.43;17.43;;;;;;;-145.18;100.00;46658.44;4940036;29;20130;-70
2022/06/07 22:39:47;;;;;;;31.03;19.30;;;;;;;-145.18;100.00;46654.53;4951989;29;20098;-70
